createdAt,value
2018-04-22T00:01:10.925Z,8.20
2018-04-22T00:06:14.149Z,7.93
2018-04-22T00:11:17.366Z,9.13
2018-04-22T00:16:20.616Z,7.32
2018-04-22T00:21:23.843Z,9.15
2018-04-22T00:26:27.470Z,9.75
2018-04-22T00:31:30.700Z,9.40
2018-04-22T00:36:33.928Z,7.03
2018-04-22T00:41:37.270Z,10.95
2018-04-22T00:46:40.878Z,10.30
2018-04-22T00:51:44.509Z,12.18
2018-04-22T00:56:47.769Z,10.45
2018-04-22T01:01:51.003Z,9.30
2018-04-22T01:06:54.722Z,9.48
2018-04-22T01:11:58.330Z,6.85
2018-04-22T01:17:01.537Z,7.75
2018-04-22T01:22:04.783Z,7.78
2018-04-22T01:27:07.994Z,9.98
2018-04-22T01:32:11.214Z,7.68
2018-04-22T01:37:14.432Z,9.07
2018-04-22T01:42:17.748Z,8.63
2018-04-22T01:47:20.959Z,7.68
2018-04-22T01:52:24.176Z,7.47
2018-04-22T01:57:27.401Z,8.05
2018-04-22T02:02:31.016Z,9.30
2018-04-22T02:07:34.630Z,9.25
2018-04-22T02:12:38.248Z,7.93
2018-04-22T02:17:41.861Z,6.97
2018-04-22T02:22:45.490Z,5.82
2018-04-22T02:27:48.766Z,7.05
2018-04-22T02:32:51.974Z,6.97
2018-04-22T02:37:55.172Z,7.82
2018-04-22T02:42:58.405Z,6.30
2018-04-22T02:48:02.098Z,8.88
2018-04-22T02:53:05.324Z,7.00
2018-04-22T02:58:08.539Z,6.97
2018-04-22T03:03:11.742Z,8.63
2018-04-22T03:08:14.960Z,7.70
2018-04-22T03:13:18.179Z,7.37
2018-04-22T03:18:21.383Z,8.30
2018-04-22T03:23:24.590Z,7.30
2018-04-22T03:28:27.805Z,5.57
2018-04-22T03:33:31.027Z,7.93
2018-04-22T03:38:34.258Z,8.60
2018-04-22T03:43:37.870Z,8.17
2018-04-22T03:48:41.090Z,10.93
2018-04-22T03:53:44.714Z,10.13
2018-04-22T03:58:47.936Z,9.07
2018-04-22T04:03:51.259Z,9.27
2018-04-22T04:08:54.465Z,5.83
2018-04-22T04:13:57.698Z,14.93
2018-04-22T04:19:12.830Z,9.80
2018-04-22T04:24:36.903Z,8.40
2018-04-22T04:29:40.521Z,9.77
2018-04-22T04:34:44.146Z,10.00
2018-04-22T04:39:47.908Z,8.63
2018-04-22T04:44:51.245Z,9.40
2018-04-22T04:49:54.476Z,11.60
2018-04-22T04:54:57.836Z,12.40
2018-04-22T05:00:01.079Z,10.47
2018-04-22T05:05:04.738Z,9.10
2018-04-22T05:10:07.952Z,10.83
2018-04-22T05:15:11.178Z,11.23
2018-04-22T05:20:14.501Z,8.90
2018-04-22T05:25:17.714Z,10.50
2018-04-22T05:30:21.331Z,9.52
2018-04-22T05:35:24.950Z,11.20
2018-04-22T05:40:28.658Z,7.62
2018-04-22T05:45:32.277Z,11.88
2018-04-22T05:50:35.902Z,12.75
2018-04-22T05:55:39.599Z,12.43
2018-04-22T06:00:42.836Z,8.65
2018-04-22T06:05:46.095Z,10.52
2018-04-22T06:10:49.306Z,9.50
2018-04-22T06:15:52.554Z,10.27
2018-04-22T06:20:55.772Z,9.65
2018-04-22T06:25:58.996Z,9.85
2018-04-22T06:31:02.241Z,8.63
2018-04-22T06:36:05.459Z,7.03
2018-04-22T06:41:09.162Z,9.25
2018-04-22T06:46:12.437Z,7.62
2018-04-22T06:51:15.651Z,9.70
2018-04-22T06:56:19.115Z,7.93
2018-04-22T07:01:22.496Z,7.03
2018-04-22T07:06:26.173Z,9.05
2018-04-22T07:11:29.414Z,8.65
2018-04-22T07:16:32.640Z,9.52
2018-04-22T07:21:36.255Z,8.57
2018-04-22T07:26:39.927Z,9.65
2018-04-22T07:31:43.159Z,12.50
2018-04-22T07:36:46.408Z,9.82
2018-04-22T07:41:49.688Z,12.40
2018-04-22T07:46:53.334Z,9.05
2018-04-22T07:51:56.564Z,13.35
2018-04-22T07:56:59.798Z,12.02
2018-04-22T08:02:03.444Z,12.45
2018-04-22T08:07:06.676Z,10.77
2018-04-22T08:12:09.935Z,9.82
2018-04-22T08:17:13.579Z,10.68
2018-04-22T08:22:16.788Z,8.93
2018-04-22T08:27:20.062Z,8.75
2018-04-22T08:32:23.740Z,9.07
2018-04-22T08:37:26.989Z,10.75
2018-04-22T08:42:30.241Z,7.18
2018-04-22T08:47:33.570Z,10.25
2018-04-22T08:52:36.824Z,8.90
2018-04-22T08:57:40.043Z,7.62
2018-04-22T09:02:43.406Z,7.32
2018-04-22T09:07:46.712Z,11.80
2018-04-22T09:12:49.956Z,10.32
2018-04-22T09:17:53.173Z,11.57
2018-04-22T09:22:56.533Z,9.60
2018-04-22T09:27:59.823Z,11.65
2018-04-22T09:33:03.481Z,9.23
2018-04-22T09:38:06.884Z,8.43
2018-04-22T09:43:10.566Z,9.05
2018-04-22T09:48:13.784Z,9.95
2018-04-22T09:53:17.027Z,10.82
2018-04-22T09:58:20.238Z,9.52
2018-04-22T10:03:23.484Z,11.98
2018-04-22T10:08:26.912Z,9.85
2018-04-22T10:13:30.629Z,11.43
2018-04-22T10:18:34.655Z,9.95
2018-04-22T10:23:37.883Z,10.32
2018-04-22T10:28:41.100Z,8.90
2018-04-22T10:33:44.343Z,9.35
2018-04-22T10:38:47.678Z,9.00
2018-04-22T10:43:50.990Z,9.45
2018-04-22T10:48:54.632Z,8.13
2018-04-22T10:53:57.862Z,6.28
2018-04-22T10:59:01.111Z,6.95
2018-04-22T11:04:04.421Z,6.60
2018-04-22T11:09:07.657Z,8.50
2018-04-22T11:14:10.923Z,5.93
2018-04-22T11:19:14.172Z,7.78
2018-04-22T11:24:18.110Z,8.38
2018-04-22T11:29:21.390Z,5.70
2018-04-22T11:34:24.675Z,6.60
2018-04-22T11:39:28.036Z,4.57
2018-04-22T11:44:31.264Z,6.62
2018-04-22T11:49:34.494Z,5.78
2018-04-22T11:54:37.703Z,7.10
2018-04-22T11:59:41.335Z,7.47
2018-04-22T12:04:44.970Z,5.78
2018-04-22T12:09:48.199Z,4.00
2018-04-22T12:14:51.642Z,5.70
2018-04-22T12:19:55.373Z,7.40
2018-04-22T12:24:58.666Z,4.68
2018-04-22T12:30:02.283Z,7.62
2018-04-22T12:35:05.892Z,5.80
2018-04-22T12:40:09.543Z,4.90
2018-04-22T12:45:12.794Z,4.40
2018-04-22T12:50:16.135Z,4.47
2018-04-22T12:55:19.740Z,4.95
2018-04-22T13:00:22.990Z,5.22
2018-04-22T13:05:26.221Z,5.12
2018-04-22T13:10:29.477Z,7.80
2018-04-22T13:15:32.786Z,4.82
2018-04-22T13:20:36.403Z,4.70
2018-04-22T13:25:39.666Z,6.43
2018-04-22T13:30:42.994Z,5.47
2018-04-22T13:35:46.228Z,4.87
2018-04-22T13:40:49.617Z,7.93
2018-04-22T13:45:53.253Z,4.82
2018-04-22T13:50:56.484Z,6.35
2018-04-22T13:55:59.749Z,5.20
2018-04-22T14:01:03.453Z,4.82
2018-04-22T14:06:07.168Z,9.15
2018-04-22T14:11:10.415Z,5.07
2018-04-22T14:16:13.692Z,5.50
2018-04-22T14:21:17.396Z,4.47
2018-04-22T14:26:20.834Z,4.95
2018-04-22T14:31:24.305Z,3.60
2018-04-22T14:36:27.539Z,4.00
2018-04-22T14:41:31.237Z,4.35
2018-04-22T14:46:34.854Z,3.40
2018-04-22T14:51:38.086Z,4.28
2018-04-22T14:56:41.345Z,3.22
2018-04-22T15:01:44.670Z,2.90
2018-04-22T15:06:48.358Z,3.25
2018-04-22T15:11:51.695Z,4.12
2018-04-22T15:16:54.949Z,5.87
2018-04-22T15:21:58.185Z,3.40
2018-04-22T15:27:02.022Z,5.93
2018-04-22T15:32:05.302Z,4.78
2018-04-22T15:37:08.844Z,4.70
2018-04-22T15:42:12.074Z,4.47
2018-04-22T15:47:15.456Z,3.85
2018-04-22T15:52:18.688Z,3.58
2018-04-22T15:57:21.970Z,5.53
2018-04-22T16:02:25.709Z,5.20
2018-04-22T16:07:28.994Z,5.57
2018-04-22T16:12:32.916Z,7.72
2018-04-22T16:17:36.528Z,4.37
2018-04-22T16:22:40.256Z,5.40
2018-04-22T16:27:43.960Z,6.00
2018-04-22T16:32:47.576Z,4.15
2018-04-22T16:37:51.297Z,5.53
2018-04-22T16:42:55.014Z,5.25
2018-04-22T16:47:58.703Z,4.22
2018-04-22T16:53:01.942Z,5.32
2018-04-22T16:58:05.173Z,3.78
2018-04-22T17:03:08.553Z,6.05
2018-04-22T17:08:11.775Z,5.85
2018-04-22T17:13:15.028Z,3.90
2018-04-22T17:18:18.283Z,4.70
2018-04-22T17:23:21.647Z,6.37
2018-04-22T17:28:25.374Z,4.70
2018-04-22T17:33:28.595Z,6.50
2018-04-22T17:38:31.826Z,3.80
2018-04-22T17:43:35.046Z,4.93
2018-04-22T17:48:38.289Z,3.83
2018-04-22T17:53:41.566Z,7.05
2018-04-22T17:58:45.232Z,9.27
2018-04-22T18:03:48.488Z,4.95
2018-04-22T18:08:52.267Z,5.87
2018-04-22T18:13:55.478Z,5.32
2018-04-22T18:18:59.396Z,5.00
2018-04-22T18:24:02.815Z,4.43
2018-04-22T18:29:06.634Z,5.30
2018-04-22T18:34:10.447Z,7.15
2018-04-22T18:39:13.732Z,4.45
2018-04-22T18:44:16.947Z,5.05
2018-04-22T18:49:20.273Z,3.90
2018-04-22T18:54:23.958Z,6.32
2018-04-22T18:59:27.271Z,7.65
2018-04-22T19:04:30.922Z,14.05
2018-04-22T19:09:34.213Z,20.52
2018-04-22T19:14:37.856Z,27.90
2018-04-22T19:19:41.220Z,42.85
2018-04-22T19:24:44.834Z,31.55
2018-04-22T19:29:48.963Z,21.30
2018-04-22T19:34:52.785Z,12.98
2018-04-22T19:39:56.100Z,13.07
2018-04-22T19:44:59.722Z,17.95
2018-04-22T19:50:03.175Z,22.27
2018-04-22T19:55:06.718Z,25.05
2018-04-22T20:00:10.034Z,19.60
2018-04-22T20:05:13.782Z,22.77
2018-04-22T20:10:18.898Z,13.60
2018-04-22T20:15:22.145Z,9.70
2018-04-22T20:20:25.383Z,11.25
2018-04-22T20:25:29.311Z,11.18
2018-04-22T20:30:33.210Z,12.60
2018-04-22T20:35:36.591Z,9.45
2018-04-22T20:40:40.956Z,13.93
2018-04-22T20:45:44.355Z,13.45
2018-04-22T20:50:47.875Z,9.77
2018-04-22T20:55:51.383Z,6.70
2018-04-22T21:00:54.651Z,7.25
2018-04-22T21:05:57.883Z,6.80
2018-04-22T21:11:01.406Z,6.45
2018-04-22T21:16:05.366Z,6.75
2018-04-22T21:21:08.675Z,7.10
2018-04-22T21:26:12.128Z,6.45
2018-04-22T21:31:16.150Z,5.93
2018-04-22T21:36:20.692Z,5.55
2018-04-22T21:41:24.595Z,8.07
2018-04-22T21:46:28.084Z,6.60
2018-04-22T21:51:31.461Z,8.75
2018-04-22T21:56:34.792Z,5.85
2018-04-22T22:01:38.070Z,5.90
2018-04-22T22:06:41.593Z,7.60
2018-04-22T22:11:44.893Z,6.50
2018-04-22T22:16:48.347Z,6.65
2018-04-22T22:21:51.756Z,6.55
2018-04-22T22:26:54.976Z,4.53
2018-04-22T22:31:58.582Z,5.95
2018-04-22T22:37:02.191Z,6.87
2018-04-22T22:42:06.119Z,7.22
2018-04-22T22:47:09.725Z,5.93
2018-04-22T22:52:13.359Z,6.82
2018-04-22T22:57:16.584Z,5.10
2018-04-22T23:02:19.803Z,7.85
2018-04-22T23:07:23.048Z,7.62
2018-04-22T23:12:26.258Z,4.37
2018-04-22T23:17:29.884Z,6.10
2018-04-22T23:22:33.508Z,6.95
2018-04-22T23:27:36.745Z,7.72
2018-04-22T23:32:39.965Z,7.30
2018-04-22T23:37:43.179Z,6.65
2018-04-22T23:42:46.412Z,6.57
2018-04-22T23:47:50.038Z,7.12
2018-04-22T23:52:53.271Z,8.00
2018-04-22T23:57:56.501Z,6.70
